Time;durP1;ratioP1;P1;durP2;ratioP2;P2;SDS_P1;SDS_P2;PMS_P1;PMS_P2;Temp;Humidity;BMP_temperature;BMP_pressure;BME280_temperature;BME280_humidity;BME280_pressure;Samples;Min_cycle;Max_cycle;Signal;HPM_P1;HPM_P2
2022/01/16 00:04:10;;;;;;;27.75;12.18;;;4.60;99.90;;;;;;5097417;28;20024;-58
2022/01/16 00:06:42;;;;;;;31.80;13.75;;;4.90;99.90;;;;;;5097169;28;20024;-58
2022/01/16 00:09:08;;;;;;;26.92;12.13;;;4.90;99.90;;;;;;5078550;28;20026;-56
2022/01/16 00:11:35;;;;;;;26.45;12.35;;;4.80;99.90;;;;;;5097258;28;20028;-55
2022/01/16 00:14:02;;;;;;;32.05;13.55;;;4.60;99.90;;;;;;5096861;28;20361;-59
2022/01/16 00:16:28;;;;;;;28.55;13.27;;;4.50;99.90;;;;;;5096877;28;20016;-61
2022/01/16 00:18:54;;;;;;;28.65;12.77;;;4.50;99.90;;;;;;5097220;28;20024;-58
2022/01/16 00:21:26;;;;;;;30.83;13.00;;;4.50;99.90;;;;;;5078795;28;20055;-61
2022/01/16 00:23:52;;;;;;;22.58;10.98;;;4.60;99.90;;;;;;5096495;28;20028;-58
2022/01/16 00:26:20;;;;;;;27.85;11.00;;;5.00;99.90;;;;;;5096231;28;20024;-58
2022/01/16 00:28:46;;;;;;;23.67;11.95;;;5.10;99.90;;;;;;5077942;28;20024;-56
2022/01/16 00:31:13;;;;;;;50.65;15.60;;;5.10;99.90;;;;;;5095974;28;20060;-58
2022/01/16 00:33:39;;;;;;;31.75;13.45;;;4.90;99.90;;;;;;5096071;28;20032;-58
2022/01/16 00:36:10;;;;;;;22.75;10.85;;;4.60;99.90;;;;;;5078394;28;20020;-56
2022/01/16 00:38:38;;;;;;;28.30;12.57;;;4.70;99.90;;;;;;5095929;28;20430;-54
2022/01/16 00:41:04;;;;;;;26.38;12.43;;;4.70;99.90;;;;;;5095845;28;20027;-56
2022/01/16 00:43:29;;;;;;;27.05;12.40;;;4.80;99.90;;;;;;5077753;28;20028;-56
2022/01/16 00:45:55;;;;;;;35.58;13.35;;;4.80;99.90;;;;;;5095832;28;20020;-59
2022/01/16 00:48:20;;;;;;;36.47;13.57;;;4.70;99.90;;;;;;5095939;28;20508;-58
2022/01/16 00:50:46;;;;;;;28.83;12.27;;;4.80;99.90;;;;;;5077531;28;20030;-59
2022/01/16 00:53:12;;;;;;;38.17;14.00;;;5.00;99.90;;;;;;5095896;28;20024;-57
2022/01/16 00:55:38;;;;;;;29.60;12.73;;;5.00;99.90;;;;;;5077504;28;20479;-56
2022/01/16 00:58:05;;;;;;;29.88;13.25;;;5.00;99.90;;;;;;5077612;28;20510;-55
2022/01/16 01:00:32;;;;;;;37.92;15.02;;;5.00;99.90;;;;;;5095628;28;20028;-54
2022/01/16 01:02:58;;;;;;;35.00;13.40;;;4.80;99.90;;;;;;5077213;28;20028;-58
2022/01/16 01:05:24;;;;;;;33.20;14.65;;;4.80;99.90;;;;;;5095457;28;20020;-57
2022/01/16 01:07:50;;;;;;;38.42;14.13;;;4.70;99.90;;;;;;5095623;28;20020;-54
2022/01/16 01:10:16;;;;;;;28.42;12.15;;;4.60;99.90;;;;;;5095020;28;20028;-56
2022/01/16 01:13:08;;;;;;;32.97;15.15;;;4.50;99.90;;;;;;5077539;28;20024;-57
2022/01/16 01:15:43;;;;;;;42.63;16.77;;;4.30;99.90;;;;;;5095264;28;20024;-54
2022/01/16 01:18:09;;;;;;;33.75;13.15;;;4.00;99.90;;;;;;5077040;28;20028;-58
2022/01/16 01:20:36;;;;;;;28.73;13.00;;;4.10;99.90;;;;;;5077001;28;20065;-57
2022/01/16 01:23:02;;;;;;;34.97;14.73;;;4.10;99.90;;;;;;5077964;28;20020;-56
2022/01/16 01:25:28;;;;;;;33.00;14.23;;;4.20;99.90;;;;;;5095322;28;20051;-53
2022/01/16 01:27:53;;;;;;;30.52;13.75;;;4.20;99.90;;;;;;5095087;28;20055;-59
2022/01/16 01:30:23;;;;;;;29.17;13.10;;;4.30;99.90;;;;;;5076689;28;20038;-55
2022/01/16 01:32:49;;;;;;;31.55;13.93;;;4.50;99.90;;;;;;5076748;28;20058;-58
2022/01/16 01:35:18;;;;;;;32.60;12.70;;;4.60;99.90;;;;;;5076834;28;20097;-59
2022/01/16 01:37:44;;;;;;;32.30;13.52;;;4.70;99.90;;;;;;5095201;28;20016;-55
2022/01/16 01:40:13;;;;;;;30.80;12.68;;;4.60;99.90;;;;;;5094846;28;20024;-55
2022/01/16 01:42:46;;;;;;;29.02;12.68;;;4.60;99.90;;;;;;5076780;28;20016;-55
2022/01/16 01:51:09;;;;;;;34.90;14.15;;;4.70;99.90;;;;;;5094953;28;20032;-59
2022/01/16 01:53:36;;;;;;;40.83;16.42;;;4.80;99.90;;;;;;5095016;28;20028;-59
2022/01/16 01:56:03;;;;;;;37.22;15.15;;;4.70;99.90;;;;;;5094716;28;20016;-53
2022/01/16 01:58:29;;;;;;;39.67;16.15;;;4.70;99.90;;;;;;5076284;28;20031;-56
2022/01/16 02:00:55;;;;;;;39.10;16.25;;;4.70;99.90;;;;;;5094328;28;20024;-56
2022/01/16 02:05:46;;;;;;;39.58;15.70;;;4.30;99.90;;;;;;5094295;28;20077;-57
2022/01/16 02:08:12;;;;;;;35.70;14.73;;;4.40;99.90;;;;;;5094508;28;20016;-54
2022/01/16 02:10:39;;;;;;;37.20;15.30;;;4.70;99.90;;;;;;5094290;28;20468;-56
2022/01/16 02:13:08;;;;;;;43.80;17.42;;;4.80;99.90;;;;;;5076980;28;20047;-58
2022/01/16 02:31:47;;;;;;;38.97;16.40;;;4.50;99.90;;;;;;5094171;28;20413;-56
2022/01/16 02:37:01;;;;;;;51.53;19.58;;;4.40;99.90;;;;;;5094163;28;20063;-53
2022/01/16 02:39:30;;;;;;;46.40;17.90;;;4.20;99.90;;;;;;5076329;28;20085;-59
2022/01/16 02:41:58;;;;;;;61.72;18.23;;;4.20;99.90;;;;;;5075533;28;20107;-57
2022/01/16 02:46:54;;;;;;;43.47;17.17;;;4.40;99.90;;;;;;5093868;28;20048;-57
2022/01/16 02:49:24;;;;;;;39.03;16.23;;;4.50;99.90;;;;;;5075412;28;20028;-57
2022/01/16 02:51:55;;;;;;;39.22;17.00;;;4.90;99.90;;;;;;5075366;28;20024;-55
2022/01/16 02:54:21;;;;;;;36.92;16.95;;;4.80;99.90;;;;;;5075406;28;20031;-58
2022/01/16 02:56:48;;;;;;;41.25;16.33;;;5.20;99.90;;;;;;5075306;28;20114;-58
2022/01/16 02:59:15;;;;;;;40.00;15.90;;;5.40;99.90;;;;;;5075514;28;20028;-59
2022/01/16 03:01:41;;;;;;;41.80;16.88;;;5.50;99.90;;;;;;5093346;28;20016;-59
2022/01/16 03:04:07;;;;;;;45.97;18.05;;;5.20;99.90;;;;;;5093526;28;20037;-58
2022/01/16 03:06:34;;;;;;;42.05;16.63;;;5.00;99.90;;;;;;5076150;28;20028;-55
2022/01/16 03:09:00;;;;;;;38.08;14.35;;;5.00;99.90;;;;;;5093321;28;20027;-55
2022/01/16 03:11:35;;;;;;;35.97;15.13;;;4.90;99.90;;;;;;5093239;28;20016;-54
2022/01/16 03:14:05;;;;;;;39.42;15.52;;;4.80;99.90;;;;;;5076388;28;20074;-53
2022/01/16 03:16:31;;;;;;;37.88;13.93;;;4.80;99.90;;;;;;5075159;28;20024;-56
2022/01/16 03:21:54;;;;;;;32.92;13.85;;;4.90;99.90;;;;;;5093482;28;20089;-54
2022/01/16 03:24:44;;;;;;;30.77;12.73;;;5.00;99.90;;;;;;5075301;28;20106;-52
2022/01/16 03:27:14;;;;;;;31.88;12.80;;;4.90;99.90;;;;;;5093239;28;20034;-54
2022/01/16 03:29:42;;;;;;;29.17;11.15;;;4.90;99.90;;;;;;5093300;28;20021;-55
2022/01/16 03:32:12;;;;;;;27.08;11.45;;;4.90;99.90;;;;;;5076160;28;20403;-55
2022/01/16 03:34:37;;;;;;;26.85;11.43;;;5.00;99.90;;;;;;5097423;28;20106;-58
2022/01/16 03:37:03;;;;;;;30.77;13.25;;;5.20;99.90;;;;;;5078916;28;20114;-55
2022/01/16 03:39:29;;;;;;;28.75;11.23;;;5.10;99.90;;;;;;5079013;28;20054;-57
2022/01/16 03:41:56;;;;;;;35.75;12.40;;;5.20;99.90;;;;;;5078813;28;20059;-57
2022/01/16 03:44:22;;;;;;;34.40;12.98;;;5.10;99.90;;;;;;5097111;28;20107;-56
2022/01/16 03:46:49;;;;;;;34.67;13.30;;;4.90;99.90;;;;;;5079590;28;20093;-57
2022/01/16 03:49:16;;;;;;;35.05;13.77;;;4.80;99.90;;;;;;5078550;28;20099;-59
2022/01/16 03:51:44;;;;;;;40.25;15.13;;;4.60;99.90;;;;;;5096813;28;20099;-58
2022/01/16 03:54:13;;;;;;;41.75;14.52;;;4.60;99.90;;;;;;5096844;28;20024;-58
2022/01/16 03:56:39;;;;;;;36.15;13.15;;;4.60;99.90;;;;;;5078546;28;20069;-59
2022/01/16 03:59:05;;;;;;;32.85;12.55;;;4.50;99.90;;;;;;5078443;28;20024;-58
2022/01/16 04:01:31;;;;;;;35.40;13.18;;;4.50;99.90;;;;;;5096859;28;20063;-59
2022/01/16 04:03:56;;;;;;;37.65;13.68;;;4.40;99.90;;;;;;5096976;28;20063;-58
2022/01/16 04:06:22;;;;;;;28.98;11.85;;;4.40;99.90;;;;;;5096793;28;20103;-53
2022/01/16 04:08:50;;;;;;;29.88;12.02;;;4.40;99.90;;;;;;5078638;28;20024;-57
2022/01/16 04:11:16;;;;;;;28.48;11.00;;;4.40;99.90;;;;;;5078291;28;20062;-57
2022/01/16 04:13:50;;;;;;;25.27;10.15;;;4.40;99.90;;;;;;5078299;28;20020;-52
2022/01/16 04:16:17;;;;;;;26.75;10.57;;;4.40;99.90;;;;;;5079125;28;20063;-57
2022/01/16 04:18:43;;;;;;;30.08;11.13;;;4.40;99.90;;;;;;5096290;28;20027;-53
2022/01/16 04:21:09;;;;;;;25.83;11.07;;;4.30;99.90;;;;;;5078390;28;20055;-55
2022/01/16 04:23:34;;;;;;;23.75;9.13;;;4.20;99.90;;;;;;5078642;28;20051;-53
2022/01/16 04:26:00;;;;;;;22.15;9.10;;;4.10;99.90;;;;;;5078015;28;20027;-56
2022/01/16 04:28:25;;;;;;;24.75;10.32;;;4.10;99.90;;;;;;5077989;28;20024;-56
2022/01/16 04:30:52;;;;;;;27.35;11.98;;;4.10;99.90;;;;;;5077759;28;20031;-57
2022/01/16 04:33:18;;;;;;;18.25;7.43;;;4.10;99.90;;;;;;5095926;28;20511;-52
2022/01/16 04:35:44;;;;;;;19.88;8.27;;;4.10;99.90;;;;;;5094929;28;20117;-57
2022/01/16 04:38:10;;;;;;;17.15;7.80;;;4.10;99.90;;;;;;5096062;28;20020;-54
2022/01/16 04:43:47;;;;;;;15.60;6.88;;;4.20;99.90;;;;;;5095247;28;20369;-55
2022/01/16 04:43:48;;;;;;;14.48;6.80;;;4.20;99.90;;;;;;5094685;28;20111;-52
2022/01/16 04:46:27;;;;;;;12.65;6.20;;;4.20;99.90;;;;;;5095822;28;20031;-54
2022/01/16 04:48:55;;;;;;;12.45;5.47;;;4.30;99.90;;;;;;5094432;28;20087;-55
2022/01/16 04:51:22;;;;;;;13.55;5.55;;;4.40;99.90;;;;;;5094417;28;20502;-57
2022/01/16 04:53:48;;;;;;;16.90;7.20;;;4.30;99.90;;;;;;5094426;28;20032;-55
2022/01/16 04:56:14;;;;;;;12.63;5.93;;;4.30;99.90;;;;;;5095544;28;20020;-58
2022/01/16 04:58:41;;;;;;;8.13;4.22;;;4.30;99.90;;;;;;5077705;28;20054;-57
2022/01/16 05:01:07;;;;;;;11.15;5.30;;;4.30;99.90;;;;;;5077945;28;20035;-58
2022/01/16 05:03:34;;;;;;;10.88;4.78;;;4.30;99.90;;;;;;5095369;28;20031;-53
2022/01/16 05:06:01;;;;;;;12.32;5.10;;;4.20;99.90;;;;;;5094136;28;20111;-56
2022/01/16 05:08:28;;;;;;;12.18;4.82;;;4.20;99.90;;;;;;5094425;28;20169;-58
2022/01/16 05:10:55;;;;;;;12.63;5.20;;;4.10;99.90;;;;;;5093972;28;20031;-59
2022/01/16 05:18:35;;;;;;;14.10;5.63;;;4.20;99.90;;;;;;5095695;28;20034;-59
2022/01/16 05:21:01;;;;;;;15.57;5.40;;;4.20;99.90;;;;;;5094612;28;20032;-57
2022/01/16 05:23:28;;;;;;;12.60;5.88;;;4.20;99.90;;;;;;5093898;28;20031;-59
2022/01/16 05:25:54;;;;;;;14.38;5.72;;;4.30;99.90;;;;;;5094969;28;20050;-58
2022/01/16 05:28:20;;;;;;;17.05;7.63;;;4.30;99.90;;;;;;5094893;28;20020;-55
2022/01/16 05:30:46;;;;;;;14.23;5.70;;;4.30;99.90;;;;;;5094732;28;20548;-58
2022/01/16 05:33:12;;;;;;;12.27;5.75;;;4.20;99.90;;;;;;5093561;28;20048;-58
2022/01/16 05:35:38;;;;;;;12.13;6.57;;;4.20;99.90;;;;;;5095130;28;20056;-56
2022/01/16 05:38:04;;;;;;;11.10;5.55;;;4.20;99.90;;;;;;5094691;28;20022;-58
2022/01/16 05:40:30;;;;;;;12.02;5.47;;;4.20;99.90;;;;;;5093375;28;20114;-57
2022/01/16 05:42:56;;;;;;;13.00;5.90;;;4.10;99.90;;;;;;5094849;28;20076;-55
2022/01/16 05:45:22;;;;;;;15.32;6.63;;;4.10;99.90;;;;;;5094564;28;20103;-53
2022/01/16 05:47:48;;;;;;;15.73;6.70;;;4.10;99.90;;;;;;5094725;28;20030;-54
2022/01/16 05:50:13;;;;;;;10.40;5.38;;;4.10;99.90;;;;;;5094514;28;20020;-59
2022/01/16 05:52:40;;;;;;;12.05;6.07;;;4.20;99.90;;;;;;5076399;28;20058;-57
2022/01/16 05:55:06;;;;;;;12.68;5.82;;;4.20;99.90;;;;;;5076716;28;20081;-59
2022/01/16 05:57:32;;;;;;;22.58;8.25;;;4.20;99.90;;;;;;5094335;28;20071;-53
2022/01/16 05:59:58;;;;;;;14.63;6.75;;;4.20;99.90;;;;;;5094547;28;20020;-56
2022/01/16 06:02:27;;;;;;;11.35;5.82;;;4.30;99.90;;;;;;5076259;28;20055;-54
2022/01/16 06:04:53;;;;;;;13.25;6.68;;;4.30;99.90;;;;;;5094521;28;20077;-52
2022/01/16 06:07:19;;;;;;;19.88;5.47;;;4.20;99.90;;;;;;5076072;28;20032;-55
2022/01/16 06:09:45;;;;;;;12.50;5.50;;;4.20;99.90;;;;;;5075932;28;20032;-56
2022/01/16 06:12:11;;;;;;;14.85;6.47;;;4.10;99.90;;;;;;5092888;28;20062;-53
2022/01/16 06:14:37;;;;;;;12.05;5.55;;;4.20;99.90;;;;;;5092832;28;20031;-58
2022/01/16 06:17:03;;;;;;;9.93;5.35;;;4.30;99.90;;;;;;5075940;28;20024;-56
2022/01/16 06:19:28;;;;;;;14.18;6.18;;;4.10;99.90;;;;;;5092706;28;20024;-58
2022/01/16 06:21:54;;;;;;;10.70;5.47;;;4.10;99.90;;;;;;5094007;28;20122;-52
2022/01/16 06:24:20;;;;;;;13.85;6.88;;;4.10;99.90;;;;;;5093942;28;20063;-55
2022/01/16 06:26:46;;;;;;;15.05;7.10;;;4.10;99.90;;;;;;5094483;28;20023;-57
2022/01/16 06:29:12;;;;;;;15.30;7.90;;;4.10;99.90;;;;;;5094023;28;20395;-53
2022/01/16 06:31:38;;;;;;;11.98;5.88;;;4.10;99.90;;;;;;5093676;28;20028;-52
2022/01/16 06:34:06;;;;;;;14.80;5.70;;;4.30;99.90;;;;;;5094098;28;20027;-52
2022/01/16 06:36:33;;;;;;;14.57;6.90;;;4.40;99.90;;;;;;5093701;28;20016;-57
2022/01/16 06:38:58;;;;;;;16.83;7.38;;;4.30;99.90;;;;;;5075562;28;20048;-55
2022/01/16 06:41:24;;;;;;;15.05;7.22;;;4.20;99.90;;;;;;5075736;28;20078;-55
2022/01/16 06:43:50;;;;;;;20.38;8.25;;;4.20;99.90;;;;;;5093798;28;20464;-58
2022/01/16 06:46:15;;;;;;;14.85;7.32;;;4.20;99.90;;;;;;5093674;28;20024;-53
2022/01/16 06:48:41;;;;;;;17.42;7.38;;;4.20;99.90;;;;;;5075432;28;20020;-54
2022/01/16 06:51:07;;;;;;;13.57;6.70;;;4.20;99.90;;;;;;5093793;28;20036;-54
2022/01/16 06:53:33;;;;;;;15.57;6.60;;;4.20;99.90;;;;;;5075545;28;20091;-54
2022/01/16 06:56:00;;;;;;;17.50;7.55;;;4.10;99.90;;;;;;5092228;28;20396;-58
2022/01/16 06:58:26;;;;;;;19.80;7.68;;;4.10;99.90;;;;;;5092595;28;20027;-54
2022/01/16 07:00:51;;;;;;;21.70;8.13;;;4.10;99.90;;;;;;5093394;28;20024;-57
2022/01/16 07:03:17;;;;;;;17.60;7.13;;;4.20;99.90;;;;;;5075277;28;20055;-58
2022/01/16 07:05:43;;;;;;;17.75;7.32;;;4.20;99.90;;;;;;5075428;28;20050;-58
2022/01/16 07:08:09;;;;;;;20.33;8.50;;;4.10;99.90;;;;;;5075508;28;20069;-59
2022/01/16 07:10:35;;;;;;;20.42;8.93;;;4.10;99.90;;;;;;5092083;28;20511;-52
2022/01/16 07:13:00;;;;;;;21.70;8.88;;;4.00;99.90;;;;;;5076080;28;20028;-57
2022/01/16 07:15:35;;;;;;;20.77;8.98;;;4.00;99.90;;;;;;5093614;28;20016;-52
2022/01/16 07:18:00;;;;;;;21.00;9.18;;;4.00;99.90;;;;;;5075379;28;20074;-54
2022/01/16 07:20:26;;;;;;;22.25;9.40;;;4.00;99.90;;;;;;5075147;28;20016;-57
2022/01/16 07:22:52;;;;;;;22.08;9.27;;;4.00;99.90;;;;;;5093198;28;20055;-55
2022/01/16 07:25:17;;;;;;;24.67;10.15;;;4.00;99.90;;;;;;5074953;28;20024;-58
2022/01/16 07:27:43;;;;;;;25.90;12.43;;;4.00;99.90;;;;;;5093152;28;20020;-56
2022/01/16 07:30:09;;;;;;;31.30;14.77;;;4.00;99.90;;;;;;5092931;28;20028;-58
2022/01/16 07:32:35;;;;;;;27.23;12.77;;;4.00;99.90;;;;;;5075089;28;20020;-59
2022/01/16 07:35:00;;;;;;;23.92;11.35;;;4.10;99.90;;;;;;5075026;28;20031;-56
2022/01/16 07:37:26;;;;;;;24.15;11.77;;;4.10;99.90;;;;;;5075041;28;20118;-54
2022/01/16 07:39:52;;;;;;;35.78;15.52;;;4.00;99.90;;;;;;5093073;28;20032;-53
2022/01/16 07:42:17;;;;;;;31.23;14.48;;;4.00;99.90;;;;;;5093116;28;20114;-57
2022/01/16 07:44:43;;;;;;;34.35;14.95;;;4.00;99.90;;;;;;5074864;28;20027;-58
2022/01/16 07:47:08;;;;;;;36.60;14.48;;;4.00;99.90;;;;;;5074807;28;20020;-58
2022/01/16 07:49:34;;;;;;;59.13;23.50;;;4.00;99.90;;;;;;5074849;28;20067;-55
2022/01/16 07:52:00;;;;;;;50.05;21.35;;;4.00;99.90;;;;;;5092980;28;20048;-57
2022/01/16 07:54:26;;;;;;;33.03;16.00;;;4.10;99.90;;;;;;5092863;28;20064;-56
2022/01/16 07:56:51;;;;;;;47.05;19.52;;;4.10;99.90;;;;;;5074820;28;20035;-58
2022/01/16 07:59:17;;;;;;;23.25;10.68;;;4.10;99.90;;;;;;5092795;28;20028;-58
2022/01/16 08:01:43;;;;;;;35.75;16.20;;;4.00;99.90;;;;;;5092894;28;20020;-54
2022/01/16 08:04:09;;;;;;;17.42;8.98;;;4.10;99.90;;;;;;5074673;28;20025;-59
2022/01/16 08:06:35;;;;;;;16.50;8.30;;;4.10;99.90;;;;;;5092763;28;20139;-59
2022/01/16 08:09:00;;;;;;;16.15;8.10;;;4.10;99.90;;;;;;5075489;28;20024;-56
2022/01/16 08:11:26;;;;;;;25.05;11.20;;;4.20;99.90;;;;;;5092723;28;20089;-59
2022/01/16 08:13:51;;;;;;;25.90;13.85;;;4.20;99.90;;;;;;5074655;28;20066;-57
2022/01/16 08:16:17;;;;;;;31.60;15.20;;;4.30;99.90;;;;;;5074857;28;20031;-59
2022/01/16 08:18:43;;;;;;;19.25;9.38;;;4.20;99.90;;;;;;5074925;28;20089;-54
2022/01/16 08:21:09;;;;;;;17.40;7.53;;;4.30;99.90;;;;;;5078203;28;20119;-59
2022/01/16 08:23:34;;;;;;;15.98;9.43;;;4.20;99.90;;;;;;5095014;28;20024;-54
2022/01/16 08:26:01;;;;;;;15.48;7.43;;;4.20;99.90;;;;;;5078140;28;20016;-58
2022/01/16 08:28:27;;;;;;;18.02;9.70;;;4.20;99.90;;;;;;5096264;28;20020;-59
2022/01/16 08:30:53;;;;;;;14.32;7.32;;;4.20;99.90;;;;;;5096011;28;20028;-54
2022/01/16 08:33:18;;;;;;;17.65;8.27;;;4.20;99.90;;;;;;5077797;28;20020;-56
2022/01/16 08:35:44;;;;;;;13.88;6.97;;;4.20;99.90;;;;;;5094964;28;20069;-54
2022/01/16 08:38:09;;;;;;;14.95;6.65;;;4.20;99.90;;;;;;5077947;28;20028;-57
2022/01/16 08:40:35;;;;;;;14.85;7.50;;;4.30;99.90;;;;;;5096150;28;20117;-60
2022/01/16 08:43:08;;;;;;;18.08;7.88;;;4.50;99.90;;;;;;5095995;28;20044;-54
2022/01/16 08:45:35;;;;;;;19.98;8.20;;;4.50;99.90;;;;;;5096246;28;20024;-59
2022/01/16 08:48:00;;;;;;;17.58;7.97;;;4.40;99.90;;;;;;5094508;28;20024;-57
2022/01/16 08:50:26;;;;;;;22.33;9.93;;;4.40;99.90;;;;;;5077579;28;20165;-58
2022/01/16 08:52:51;;;;;;;19.55;7.22;;;4.40;99.90;;;;;;5077590;28;20028;-59
2022/01/16 08:55:17;;;;;;;16.50;8.05;;;4.40;99.90;;;;;;5077571;28;20026;-59
2022/01/16 08:57:43;;;;;;;17.45;7.65;;;4.40;99.90;;;;;;5077465;28;20085;-58
2022/01/16 09:00:09;;;;;;;18.38;8.52;;;4.60;99.90;;;;;;5095486;28;20067;-57
2022/01/16 09:02:35;;;;;;;18.30;7.82;;;4.50;99.90;;;;;;5095528;28;20074;-57
2022/01/16 09:05:01;;;;;;;19.63;8.45;;;4.50;99.90;;;;;;5095417;28;20020;-59
2022/01/16 09:07:28;;;;;;;19.75;8.50;;;4.60;99.90;;;;;;5077497;28;20024;-59
2022/01/16 09:09:53;;;;;;;21.27;9.27;;;4.60;99.90;;;;;;5095721;28;20073;-59
2022/01/16 09:12:19;;;;;;;23.25;8.85;;;4.60;99.90;;;;;;5095306;28;20044;-58
2022/01/16 09:14:45;;;;;;;22.73;8.75;;;4.50;99.90;;;;;;5077005;28;20111;-57
2022/01/16 09:17:11;;;;;;;23.50;9.40;;;4.50;99.90;;;;;;5093923;28;20381;-56
2022/01/16 09:19:36;;;;;;;28.00;10.98;;;4.60;99.90;;;;;;5095282;28;20035;-58
2022/01/16 09:22:02;;;;;;;47.85;19.17;;;4.60;99.90;;;;;;5077329;28;20031;-55
2022/01/16 09:24:27;;;;;;;40.97;14.85;;;4.60;99.90;;;;;;5094987;28;20028;-55
2022/01/16 09:26:54;;;;;;;31.48;12.43;;;4.60;99.90;;;;;;5077261;28;20024;-57
2022/01/16 09:29:21;;;;;;;30.50;11.38;;;4.70;99.90;;;;;;5094763;28;20024;-54
2022/01/16 09:31:47;;;;;;;30.67;10.80;;;4.70;99.90;;;;;;5076747;28;20060;-58
2022/01/16 09:34:13;;;;;;;33.83;13.50;;;4.60;99.90;;;;;;5094874;28;20024;-59
2022/01/16 09:36:38;;;;;;;33.72;14.15;;;4.60;99.90;;;;;;5077027;28;20035;-57
2022/01/16 09:39:04;;;;;;;34.88;12.88;;;4.60;99.90;;;;;;5094773;28;20047;-52
2022/01/16 09:41:30;;;;;;;35.10;13.70;;;4.60;99.90;;;;;;5094655;28;20027;-55
2022/01/16 09:43:56;;;;;;;40.17;15.25;;;4.70;99.90;;;;;;5076481;28;20027;-57
2022/01/16 09:46:21;;;;;;;34.97;14.05;;;4.70;99.90;;;;;;5076913;28;20107;-54
2022/01/16 09:48:47;;;;;;;39.55;15.00;;;4.70;99.90;;;;;;5076846;28;20026;-58
2022/01/16 09:51:12;;;;;;;43.00;15.05;;;4.80;99.90;;;;;;5076639;28;20024;-57
2022/01/16 09:53:42;;;;;;;40.97;14.65;;;4.80;99.90;;;;;;5076441;28;20039;-54
2022/01/16 09:56:08;;;;;;;42.22;15.75;;;4.90;99.90;;;;;;5076251;28;20059;-55
2022/01/16 09:58:34;;;;;;;35.22;14.40;;;4.90;99.90;;;;;;5094739;28;20028;-58
2022/01/16 10:01:00;;;;;;;38.95;15.05;;;4.90;99.90;;;;;;5094415;28;20035;-57
2022/01/16 10:03:40;;;;;;;42.67;14.45;;;4.80;99.90;;;;;;5077000;28;20134;-59
2022/01/16 10:06:16;;;;;;;41.03;13.88;;;4.80;99.90;;;;;;5076184;28;20024;-59
2022/01/16 10:08:43;;;;;;;38.80;14.10;;;4.80;99.90;;;;;;5094358;28;20023;-55
2022/01/16 10:11:34;;;;;;;42.45;15.07;;;4.80;99.90;;;;;;5075889;28;20027;-56
2022/01/16 10:14:07;;;;;;;46.42;17.10;;;4.80;99.90;;;;;;5076917;28;20031;-54
2022/01/16 10:16:36;;;;;;;41.42;16.00;;;4.80;99.90;;;;;;5075960;28;20032;-56
2022/01/16 10:19:03;;;;;;;37.47;14.90;;;4.80;99.90;;;;;;5075867;28;20073;-54
2022/01/16 10:21:40;;;;;;;38.13;13.45;;;4.80;99.90;;;;;;5094253;28;20031;-55
2022/01/16 10:24:29;;;;;;;45.63;15.52;;;4.90;99.90;;;;;;5076057;28;20024;-57
2022/01/16 10:27:07;;;;;;;38.28;14.43;;;4.90;99.90;;;;;;5076892;28;20055;-55
2022/01/16 10:29:45;;;;;;;36.53;15.75;;;4.90;99.90;;;;;;5076426;28;20107;-58
2022/01/16 10:32:25;;;;;;;46.97;17.40;;;4.90;99.90;;;;;;5093834;28;20101;-56
2022/01/16 10:35:11;;;;;;;38.13;15.57;;;4.90;99.90;;;;;;5094395;28;20073;-54
2022/01/16 10:37:41;;;;;;;44.50;15.95;;;4.90;99.90;;;;;;5093970;28;20063;-58
2022/01/16 10:40:16;;;;;;;46.65;18.75;;;4.90;99.90;;;;;;5093735;28;20046;-54
2022/01/16 10:42:52;;;;;;;46.42;19.02;;;4.90;99.90;;;;;;5092869;28;20480;-55
2022/01/16 10:45:22;;;;;;;44.67;17.05;;;4.90;99.90;;;;;;5075421;28;20487;-57
2022/01/16 10:47:54;;;;;;;37.72;14.63;;;4.90;99.90;;;;;;5076005;28;20082;-55
2022/01/16 10:50:22;;;;;;;34.33;14.35;;;4.90;99.90;;;;;;5075344;28;20024;-56
2022/01/16 10:52:52;;;;;;;50.90;16.42;;;4.90;99.90;;;;;;5076403;28;20035;-54
2022/01/16 10:55:20;;;;;;;38.67;14.57;;;5.00;99.90;;;;;;5075417;28;20122;-55
2022/01/16 10:57:46;;;;;;;40.80;15.90;;;5.00;99.90;;;;;;5075235;28;20031;-58
2022/01/16 11:00:18;;;;;;;39.83;14.55;;;5.00;99.90;;;;;;5093677;28;20052;-55
2022/01/16 11:02:50;;;;;;;37.70;14.50;;;5.00;99.90;;;;;;5093510;28;20056;-58
2022/01/16 11:05:22;;;;;;;40.03;14.43;;;5.00;99.90;;;;;;5076155;28;20115;-57
2022/01/16 11:07:57;;;;;;;39.55;15.10;;;5.10;99.90;;;;;;5075216;28;20028;-56
2022/01/16 11:10:34;;;;;;;42.60;16.48;;;5.10;99.90;;;;;;5075198;28;20028;-58
2022/01/16 11:13:03;;;;;;;44.08;16.90;;;5.10;99.90;;;;;;5075936;28;20016;-58
2022/01/16 11:15:30;;;;;;;37.30;15.75;;;5.00;99.90;;;;;;5076017;28;20032;-58
2022/01/16 11:17:57;;;;;;;37.03;15.45;;;5.10;99.90;;;;;;5093210;28;20031;-58
2022/01/16 11:20:29;;;;;;;42.40;15.75;;;5.10;99.90;;;;;;5075227;28;20024;-58
2022/01/16 11:22:58;;;;;;;42.92;14.52;;;5.20;99.90;;;;;;5075131;28;20047;-58
2022/01/16 11:25:31;;;;;;;38.63;14.50;;;5.30;99.90;;;;;;5093185;28;20115;-57
2022/01/16 11:28:17;;;;;;;41.45;15.90;;;5.30;99.90;;;;;;5093230;28;20054;-57
2022/01/16 11:30:46;;;;;;;36.05;13.93;;;5.40;99.90;;;;;;5074996;28;20038;-56
2022/01/16 11:33:12;;;;;;;39.95;16.70;;;5.40;99.90;;;;;;5093180;28;20023;-54
2022/01/16 11:36:01;;;;;;;32.65;14.23;;;5.50;99.90;;;;;;5075856;28;20107;-59
2022/01/16 11:38:32;;;;;;;37.72;15.00;;;5.50;99.90;;;;;;5093087;28;20020;-55
2022/01/16 11:41:04;;;;;;;34.83;14.48;;;5.50;99.90;;;;;;5074924;28;20621;-59
2022/01/16 11:43:34;;;;;;;;;;;5.60;99.90;;;;;;5075253;28;20113;-55
2022/01/16 11:46:13;;;;;;;38.90;15.10;;;5.60;99.90;;;;;;5092912;28;19904;-57
2022/01/16 11:48:53;;;;;;;39.50;16.13;;;5.60;99.90;;;;;;5075702;28;20032;-57
2022/01/16 11:51:37;;;;;;;35.30;13.77;;;5.60;99.90;;;;;;5092922;28;20130;-58
2022/01/16 11:54:38;;;;;;;40.42;15.35;;;5.80;99.90;;;;;;5095863;28;20046;-58
2022/01/16 11:57:07;;;;;;;40.00;15.25;;;5.80;99.90;;;;;;5096731;28;20032;-60
2022/01/16 11:59:33;;;;;;;34.78;14.02;;;6.00;99.90;;;;;;5078482;28;20069;-58
2022/01/16 12:02:21;;;;;;;39.80;14.15;;;5.90;99.90;;;;;;5078785;28;20016;-56
2022/01/16 12:04:46;;;;;;;46.97;15.95;;;6.00;99.90;;;;;;5096332;28;20043;-57
2022/01/16 12:07:35;;;;;;;40.45;15.35;;;6.10;99.90;;;;;;5078768;28;20111;-55
2022/01/16 12:10:03;;;;;;;33.55;14.20;;;6.00;99.90;;;;;;5096748;28;20025;-55
2022/01/16 12:12:29;;;;;;;40.88;13.73;;;6.00;99.90;;;;;;5096750;28;20062;-55
2022/01/16 12:15:09;;;;;;;36.85;14.35;;;6.10;99.90;;;;;;5078223;28;20024;-52
2022/01/16 12:17:42;;;;;;;37.22;15.02;;;6.10;99.90;;;;;;5096382;28;20022;-56
2022/01/16 12:20:11;;;;;;;36.92;15.77;;;6.10;99.90;;;;;;5078981;28;20028;-59
2022/01/16 12:22:49;;;;;;;35.88;15.13;;;6.20;99.90;;;;;;5096246;28;20027;-59
2022/01/16 12:25:39;;;;;;;33.75;14.80;;;6.30;99.90;;;;;;5078066;28;20034;-56
2022/01/16 12:28:06;;;;;;;42.00;15.55;;;6.20;99.90;;;;;;5078753;28;20028;-53
2022/01/16 12:30:35;;;;;;;36.35;13.93;;;6.30;99.90;;;;;;5077930;28;20027;-57
2022/01/16 12:33:16;;;;;;;36.03;15.73;;;6.20;99.90;;;;;;5079001;28;20107;-53
2022/01/16 12:35:42;;;;;;;39.53;15.27;;;6.20;99.90;;;;;;5096629;28;20016;-53
2022/01/16 12:38:19;;;;;;;37.15;15.20;;;6.10;99.90;;;;;;5077803;28;20027;-58
2022/01/16 12:41:02;;;;;;;36.92;14.73;;;6.20;99.90;;;;;;5077724;28;20020;-53
2022/01/16 12:43:39;;;;;;;43.90;16.63;;;6.20;99.90;;;;;;5096067;28;20046;-52
2022/01/16 12:46:05;;;;;;;39.30;15.60;;;6.20;99.90;;;;;;5095917;28;20016;-54
2022/01/16 12:49:09;;;;;;;41.55;16.20;;;6.20;99.90;;;;;;5095798;28;20070;-54
2022/01/16 12:51:38;;;;;;;43.15;16.13;;;6.20;99.90;;;;;;5077644;28;20070;-55
2022/01/16 12:54:15;;;;;;;44.38;16.10;;;6.40;99.90;;;;;;5077617;28;20027;-54
2022/01/16 12:56:50;;;;;;;38.15;15.18;;;6.40;99.90;;;;;;5077517;28;20024;-56
2022/01/16 12:59:24;;;;;;;40.60;15.15;;;6.50;99.90;;;;;;5095741;28;20050;-57
2022/01/16 13:02:01;;;;;;;36.92;13.88;;;6.50;99.90;;;;;;5095596;28;20028;-56
2022/01/16 13:07:48;;;;;;;34.78;15.00;;;6.60;99.90;;;;;;5096022;28;20043;-58
2022/01/16 13:10:14;;;;;;;36.85;14.68;;;6.70;99.90;;;;;;5077234;28;20016;-55
2022/01/16 13:12:40;;;;;;;39.38;13.68;;;6.70;99.90;;;;;;5095297;28;20065;-59
2022/01/16 13:15:05;;;;;;;31.83;12.93;;;6.70;99.90;;;;;;5095875;28;20032;-57
2022/01/16 13:17:32;;;;;;;30.80;13.65;;;6.70;99.90;;;;;;5095494;28;20031;-57
2022/01/16 13:20:00;;;;;;;34.10;13.38;;;6.70;99.90;;;;;;5095334;28;20039;-57
2022/01/16 13:22:28;;;;;;;40.38;15.60;;;6.70;99.90;;;;;;5077059;28;20028;-59
2022/01/16 13:25:01;;;;;;;39.85;16.23;;;6.80;99.90;;;;;;5095009;28;20123;-59
2022/01/16 13:27:42;;;;;;;38.95;13.85;;;6.90;99.90;;;;;;5077872;28;20077;-60
2022/01/16 13:30:23;;;;;;;38.50;14.75;;;6.90;99.90;;;;;;5077249;28;20112;-59
2022/01/16 13:32:49;;;;;;;35.00;14.85;;;6.80;99.90;;;;;;5095065;28;20016;-57